sensor_id;sensor_type;location;lat;lon;timestamp;P1;durP1;ratioP1;P2;durP2;ratioP2
62997;SDS011;55949;52.590;7.330;2023-05-02T00:00:47;34.30;;;19.75;;
62997;SDS011;55949;52.590;7.330;2023-05-02T00:01:48;33.53;;;21.13;;
62997;SDS011;55949;52.590;7.330;2023-05-02T00:02:49;37.90;;;19.33;;
62997;SDS011;55949;52.590;7.330;2023-05-02T00:03:50;38.42;;;23.63;;
62997;SDS011;55949;52.590;7.330;2023-05-02T00:04:50;36.10;;;22.77;;
62997;SDS011;55949;52.590;7.330;2023-05-02T00:05:51;34.70;;;18.67;;
62997;SDS011;55949;52.590;7.330;2023-05-02T00:06:52;41.15;;;22.27;;
62997;SDS011;55949;52.590;7.330;2023-05-02T00:07:53;37.95;;;25.20;;
62997;SDS011;55949;52.590;7.330;2023-05-02T00:08:54;40.03;;;23.08;;
62997;SDS011;55949;52.590;7.330;2023-05-02T00:09:55;38.47;;;21.73;;
62997;SDS011;55949;52.590;7.330;2023-05-02T00:10:55;39.00;;;23.00;;
62997;SDS011;55949;52.590;7.330;2023-05-02T00:11:56;37.92;;;22.23;;
62997;SDS011;55949;52.590;7.330;2023-05-02T00:12:57;36.78;;;23.08;;
62997;SDS011;55949;52.590;7.330;2023-05-02T00:13:57;37.83;;;24.42;;
62997;SDS011;55949;52.590;7.330;2023-05-02T00:14:58;35.95;;;22.45;;
62997;SDS011;55949;52.590;7.330;2023-05-02T00:15:59;36.25;;;21.38;;
62997;SDS011;55949;52.590;7.330;2023-05-02T00:16:59;34.55;;;19.02;;
62997;SDS011;55949;52.590;7.330;2023-05-02T00:18:00;36.60;;;20.48;;
62997;SDS011;55949;52.590;7.330;2023-05-02T00:19:01;37.65;;;22.40;;
62997;SDS011;55949;52.590;7.330;2023-05-02T00:20:02;34.83;;;22.08;;
62997;SDS011;55949;52.590;7.330;2023-05-02T00:21:04;33.95;;;21.10;;
62997;SDS011;55949;52.590;7.330;2023-05-02T00:22:05;37.92;;;20.92;;
62997;SDS011;55949;52.590;7.330;2023-05-02T00:23:05;32.00;;;21.60;;
62997;SDS011;55949;52.590;7.330;2023-05-02T00:24:06;29.45;;;20.52;;
62997;SDS011;55949;52.590;7.330;2023-05-02T00:25:07;30.90;;;18.67;;
62997;SDS011;55949;52.590;7.330;2023-05-02T00:26:08;30.55;;;17.92;;
62997;SDS011;55949;52.590;7.330;2023-05-02T00:27:09;31.05;;;19.73;;
62997;SDS011;55949;52.590;7.330;2023-05-02T00:28:10;29.40;;;18.33;;
62997;SDS011;55949;52.590;7.330;2023-05-02T00:29:10;28.45;;;19.20;;
62997;SDS011;55949;52.590;7.330;2023-05-02T00:30:11;31.65;;;18.42;;
62997;SDS011;55949;52.590;7.330;2023-05-02T00:31:13;31.38;;;18.17;;
62997;SDS011;55949;52.590;7.330;2023-05-02T00:32:14;27.40;;;17.08;;
62997;SDS011;55949;52.590;7.330;2023-05-02T00:33:14;32.95;;;18.80;;
62997;SDS011;55949;52.590;7.330;2023-05-02T00:34:15;28.95;;;17.75;;
62997;SDS011;55949;52.590;7.330;2023-05-02T00:35:16;28.83;;;17.83;;
62997;SDS011;55949;52.590;7.330;2023-05-02T00:36:17;31.20;;;18.75;;
62997;SDS011;55949;52.590;7.330;2023-05-02T00:37:18;29.05;;;19.17;;
62997;SDS011;55949;52.590;7.330;2023-05-02T00:38:19;31.45;;;19.92;;
62997;SDS011;55949;52.590;7.330;2023-05-02T00:39:20;28.92;;;17.63;;
62997;SDS011;55949;52.590;7.330;2023-05-02T00:40:20;31.30;;;19.63;;
62997;SDS011;55949;52.590;7.330;2023-05-02T00:41:21;31.75;;;16.88;;
62997;SDS011;55949;52.590;7.330;2023-05-02T00:42:22;26.35;;;17.08;;
62997;SDS011;55949;52.590;7.330;2023-05-02T00:43:22;34.80;;;21.05;;
62997;SDS011;55949;52.590;7.330;2023-05-02T00:44:23;32.55;;;19.23;;
62997;SDS011;55949;52.590;7.330;2023-05-02T00:45:24;30.17;;;19.52;;
62997;SDS011;55949;52.590;7.330;2023-05-02T00:46:25;33.47;;;20.60;;
62997;SDS011;55949;52.590;7.330;2023-05-02T00:47:26;28.92;;;16.60;;
62997;SDS011;55949;52.590;7.330;2023-05-02T00:48:26;30.50;;;17.02;;
62997;SDS011;55949;52.590;7.330;2023-05-02T00:49:27;28.13;;;18.73;;
62997;SDS011;55949;52.590;7.330;2023-05-02T00:50:28;30.55;;;16.40;;
62997;SDS011;55949;52.590;7.330;2023-05-02T00:51:33;31.30;;;19.65;;
62997;SDS011;55949;52.590;7.330;2023-05-02T00:52:34;29.65;;;22.77;;
62997;SDS011;55949;52.590;7.330;2023-05-02T00:53:36;33.55;;;18.08;;
62997;SDS011;55949;52.590;7.330;2023-05-02T00:54:37;29.25;;;18.27;;
62997;SDS011;55949;52.590;7.330;2023-05-02T00:55:40;31.33;;;18.80;;
62997;SDS011;55949;52.590;7.330;2023-05-02T00:56:41;35.13;;;19.90;;
62997;SDS011;55949;52.590;7.330;2023-05-02T00:57:42;31.85;;;18.13;;
62997;SDS011;55949;52.590;7.330;2023-05-02T00:58:43;28.75;;;19.17;;
62997;SDS011;55949;52.590;7.330;2023-05-02T00:59:46;32.38;;;20.60;;
62997;SDS011;55949;52.590;7.330;2023-05-02T01:03:19;33.80;;;19.08;;
62997;SDS011;55949;52.590;7.330;2023-05-02T01:05:44;36.05;;;20.13;;
62997;SDS011;55949;52.590;7.330;2023-05-02T01:08:19;32.95;;;19.13;;
62997;SDS011;55949;52.590;7.330;2023-05-02T01:09:43;33.42;;;20.23;;
62997;SDS011;55949;52.590;7.330;2023-05-02T01:10:46;32.80;;;19.58;;
62997;SDS011;55949;52.590;7.330;2023-05-02T01:12:00;37.05;;;20.15;;
62997;SDS011;55949;52.590;7.330;2023-05-02T01:13:46;35.92;;;22.20;;
62997;SDS011;55949;52.590;7.330;2023-05-02T01:14:34;40.58;;;22.33;;
62997;SDS011;55949;52.590;7.330;2023-05-02T01:15:40;34.50;;;20.45;;
62997;SDS011;55949;52.590;7.330;2023-05-02T01:16:42;35.03;;;21.50;;
62997;SDS011;55949;52.590;7.330;2023-05-02T01:17:46;39.20;;;21.70;;
62997;SDS011;55949;52.590;7.330;2023-05-02T01:18:49;36.13;;;21.92;;
62997;SDS011;55949;52.590;7.330;2023-05-02T01:19:51;37.83;;;21.40;;
62997;SDS011;55949;52.590;7.330;2023-05-02T01:20:59;38.40;;;21.77;;
62997;SDS011;55949;52.590;7.330;2023-05-02T01:22:03;41.80;;;22.60;;
62997;SDS011;55949;52.590;7.330;2023-05-02T01:24:09;46.17;;;23.00;;
62997;SDS011;55949;52.590;7.330;2023-05-02T01:26:31;36.95;;;21.55;;
62997;SDS011;55949;52.590;7.330;2023-05-02T01:27:57;39.05;;;21.17;;
62997;SDS011;55949;52.590;7.330;2023-05-02T01:29:28;42.05;;;22.48;;
62997;SDS011;55949;52.590;7.330;2023-05-02T01:30:31;41.10;;;22.02;;
62997;SDS011;55949;52.590;7.330;2023-05-02T01:31:38;42.78;;;22.15;;
62997;SDS011;55949;52.590;7.330;2023-05-02T01:32:43;47.67;;;23.88;;
62997;SDS011;55949;52.590;7.330;2023-05-02T01:33:45;49.03;;;22.85;;
62997;SDS011;55949;52.590;7.330;2023-05-02T01:34:48;46.88;;;24.33;;
62997;SDS011;55949;52.590;7.330;2023-05-02T01:35:51;39.40;;;21.30;;
62997;SDS011;55949;52.590;7.330;2023-05-02T01:36:52;35.38;;;20.85;;
62997;SDS011;55949;52.590;7.330;2023-05-02T01:37:56;35.65;;;25.88;;
62997;SDS011;55949;52.590;7.330;2023-05-02T01:39:00;33.00;;;16.25;;
62997;SDS011;55949;52.590;7.330;2023-05-02T01:40:03;34.55;;;27.73;;
62997;SDS011;55949;52.590;7.330;2023-05-02T01:41:06;41.63;;;25.02;;
62997;SDS011;55949;52.590;7.330;2023-05-02T01:42:07;31.60;;;16.67;;
62997;SDS011;55949;52.590;7.330;2023-05-02T01:43:10;29.38;;;18.45;;
62997;SDS011;55949;52.590;7.330;2023-05-02T01:44:13;25.77;;;15.40;;
62997;SDS011;55949;52.590;7.330;2023-05-02T01:45:16;26.17;;;14.32;;
62997;SDS011;55949;52.590;7.330;2023-05-02T01:46:19;22.73;;;13.32;;
62997;SDS011;55949;52.590;7.330;2023-05-02T01:47:21;24.88;;;13.20;;
62997;SDS011;55949;52.590;7.330;2023-05-02T01:48:24;20.15;;;11.63;;
62997;SDS011;55949;52.590;7.330;2023-05-02T01:49:27;17.27;;;11.30;;
62997;SDS011;55949;52.590;7.330;2023-05-02T01:50:30;18.63;;;14.32;;
62997;SDS011;55949;52.590;7.330;2023-05-02T01:51:32;14.68;;;9.02;;
62997;SDS011;55949;52.590;7.330;2023-05-02T01:52:35;16.42;;;9.70;;
62997;SDS011;55949;52.590;7.330;2023-05-02T01:53:37;13.00;;;9.23;;
62997;SDS011;55949;52.590;7.330;2023-05-02T01:54:39;13.05;;;8.10;;
62997;SDS011;55949;52.590;7.330;2023-05-02T01:55:42;15.38;;;8.13;;
62997;SDS011;55949;52.590;7.330;2023-05-02T01:56:44;13.05;;;7.45;;
62997;SDS011;55949;52.590;7.330;2023-05-02T01:57:46;11.32;;;8.52;;
62997;SDS011;55949;52.590;7.330;2023-05-02T01:58:49;13.23;;;7.63;;
62997;SDS011;55949;52.590;7.330;2023-05-02T01:59:53;12.38;;;7.15;;
62997;SDS011;55949;52.590;7.330;2023-05-02T02:00:57;14.35;;;8.55;;
62997;SDS011;55949;52.590;7.330;2023-05-02T02:02:00;15.40;;;10.55;;
62997;SDS011;55949;52.590;7.330;2023-05-02T02:03:03;12.30;;;8.02;;
62997;SDS011;55949;52.590;7.330;2023-05-02T02:04:07;14.85;;;7.03;;
62997;SDS011;55949;52.590;7.330;2023-05-02T02:05:09;10.77;;;6.30;;
62997;SDS011;55949;52.590;7.330;2023-05-02T02:06:13;14.13;;;6.15;;
62997;SDS011;55949;52.590;7.330;2023-05-02T02:07:15;10.68;;;6.57;;
62997;SDS011;55949;52.590;7.330;2023-05-02T02:08:16;10.52;;;5.53;;
62997;SDS011;55949;52.590;7.330;2023-05-02T02:09:16;15.18;;;6.72;;
62997;SDS011;55949;52.590;7.330;2023-05-02T02:10:17;12.60;;;6.07;;
62997;SDS011;55949;52.590;7.330;2023-05-02T02:11:24;10.75;;;6.00;;
62997;SDS011;55949;52.590;7.330;2023-05-02T02:12:35;8.68;;;5.57;;
62997;SDS011;55949;52.590;7.330;2023-05-02T02:13:46;13.02;;;6.40;;
62997;SDS011;55949;52.590;7.330;2023-05-02T02:14:51;13.27;;;6.28;;
62997;SDS011;55949;52.590;7.330;2023-05-02T02:16:06;10.32;;;6.32;;
62997;SDS011;55949;52.590;7.330;2023-05-02T02:17:26;9.10;;;4.65;;
62997;SDS011;55949;52.590;7.330;2023-05-02T02:18:36;8.65;;;4.95;;
62997;SDS011;55949;52.590;7.330;2023-05-02T02:19:38;12.77;;;11.45;;
62997;SDS011;55949;52.590;7.330;2023-05-02T02:20:42;6.30;;;5.47;;
62997;SDS011;55949;52.590;7.330;2023-05-02T02:21:44;8.38;;;5.60;;
62997;SDS011;55949;52.590;7.330;2023-05-02T02:22:47;6.88;;;4.45;;
62997;SDS011;55949;52.590;7.330;2023-05-02T02:23:50;7.65;;;6.78;;
62997;SDS011;55949;52.590;7.330;2023-05-02T02:24:52;7.25;;;6.55;;
62997;SDS011;55949;52.590;7.330;2023-05-02T02:25:54;9.40;;;4.85;;
62997;SDS011;55949;52.590;7.330;2023-05-02T02:26:56;7.90;;;6.28;;
62997;SDS011;55949;52.590;7.330;2023-05-02T02:27:57;7.22;;;5.85;;
62997;SDS011;55949;52.590;7.330;2023-05-02T02:28:58;8.73;;;7.82;;
62997;SDS011;55949;52.590;7.330;2023-05-02T02:30:00;8.23;;;7.38;;
62997;SDS011;55949;52.590;7.330;2023-05-02T02:31:01;23.23;;;21.65;;
62997;SDS011;55949;52.590;7.330;2023-05-02T02:32:02;9.05;;;7.13;;
62997;SDS011;55949;52.590;7.330;2023-05-02T02:33:03;15.93;;;14.82;;
62997;SDS011;55949;52.590;7.330;2023-05-02T02:34:04;7.82;;;7.03;;
62997;SDS011;55949;52.590;7.330;2023-05-02T02:35:05;6.05;;;5.43;;
62997;SDS011;55949;52.590;7.330;2023-05-02T02:36:28;8.68;;;4.97;;
62997;SDS011;55949;52.590;7.330;2023-05-02T02:37:50;8.27;;;4.97;;
62997;SDS011;55949;52.590;7.330;2023-05-02T02:39:11;5.72;;;4.20;;
62997;SDS011;55949;52.590;7.330;2023-05-02T02:40:37;9.23;;;4.88;;
62997;SDS011;55949;52.590;7.330;2023-05-02T02:48:36;7.05;;;5.03;;
62997;SDS011;55949;52.590;7.330;2023-05-02T02:50:15;8.80;;;6.22;;
62997;SDS011;55949;52.590;7.330;2023-05-02T02:51:37;8.93;;;5.43;;
62997;SDS011;55949;52.590;7.330;2023-05-02T02:54:12;9.20;;;5.05;;
62997;SDS011;55949;52.590;7.330;2023-05-02T02:55:28;6.70;;;5.15;;
62997;SDS011;55949;52.590;7.330;2023-05-02T02:56:38;10.80;;;5.63;;
62997;SDS011;55949;52.590;7.330;2023-05-02T02:58:56;10.02;;;5.45;;
62997;SDS011;55949;52.590;7.330;2023-05-02T03:01:10;8.57;;;5.75;;
62997;SDS011;55949;52.590;7.330;2023-05-02T03:02:16;8.95;;;5.72;;
62997;SDS011;55949;52.590;7.330;2023-05-02T03:03:18;8.70;;;5.82;;
62997;SDS011;55949;52.590;7.330;2023-05-02T03:04:22;12.38;;;4.88;;
62997;SDS011;55949;52.590;7.330;2023-05-02T03:05:24;12.88;;;5.85;;
62997;SDS011;55949;52.590;7.330;2023-05-02T03:06:25;8.82;;;5.82;;
62997;SDS011;55949;52.590;7.330;2023-05-02T03:07:26;9.95;;;6.07;;
62997;SDS011;55949;52.590;7.330;2023-05-02T03:08:27;9.25;;;4.75;;
62997;SDS011;55949;52.590;7.330;2023-05-02T03:09:41;8.85;;;5.55;;
62997;SDS011;55949;52.590;7.330;2023-05-02T03:10:43;8.80;;;6.22;;
62997;SDS011;55949;52.590;7.330;2023-05-02T03:11:43;8.23;;;5.95;;
62997;SDS011;55949;52.590;7.330;2023-05-02T03:12:47;7.35;;;5.13;;
62997;SDS011;55949;52.590;7.330;2023-05-02T03:13:48;9.02;;;5.80;;
62997;SDS011;55949;52.590;7.330;2023-05-02T03:14:48;8.45;;;6.15;;
62997;SDS011;55949;52.590;7.330;2023-05-02T03:16:50;10.90;;;6.20;;
62997;SDS011;55949;52.590;7.330;2023-05-02T03:17:51;8.00;;;5.95;;
62997;SDS011;55949;52.590;7.330;2023-05-02T03:18:52;10.15;;;5.90;;
62997;SDS011;55949;52.590;7.330;2023-05-02T03:19:52;8.73;;;6.03;;
62997;SDS011;55949;52.590;7.330;2023-05-02T03:20:54;9.52;;;6.03;;
62997;SDS011;55949;52.590;7.330;2023-05-02T03:21:55;10.60;;;7.00;;
62997;SDS011;55949;52.590;7.330;2023-05-02T03:22:55;11.82;;;6.28;;
62997;SDS011;55949;52.590;7.330;2023-05-02T03:23:59;10.93;;;7.13;;
62997;SDS011;55949;52.590;7.330;2023-05-02T03:25:01;9.30;;;6.05;;
62997;SDS011;55949;52.590;7.330;2023-05-02T03:26:03;15.43;;;6.93;;
62997;SDS011;55949;52.590;7.330;2023-05-02T03:27:03;9.50;;;6.22;;
62997;SDS011;55949;52.590;7.330;2023-05-02T03:28:04;8.73;;;6.25;;
62997;SDS011;55949;52.590;7.330;2023-05-02T03:29:05;9.93;;;6.63;;
62997;SDS011;55949;52.590;7.330;2023-05-02T03:30:05;10.25;;;6.00;;
62997;SDS011;55949;52.590;7.330;2023-05-02T03:31:07;9.80;;;6.75;;
62997;SDS011;55949;52.590;7.330;2023-05-02T03:32:07;10.10;;;5.65;;
62997;SDS011;55949;52.590;7.330;2023-05-02T03:33:08;10.52;;;7.03;;
62997;SDS011;55949;52.590;7.330;2023-05-02T03:34:09;10.93;;;6.78;;
62997;SDS011;55949;52.590;7.330;2023-05-02T03:35:09;10.40;;;6.80;;
62997;SDS011;55949;52.590;7.330;2023-05-02T03:36:10;9.60;;;5.78;;
62997;SDS011;55949;52.590;7.330;2023-05-02T03:37:11;9.38;;;6.32;;
62997;SDS011;55949;52.590;7.330;2023-05-02T03:38:11;13.68;;;7.57;;
62997;SDS011;55949;52.590;7.330;2023-05-02T03:39:13;9.80;;;6.55;;
62997;SDS011;55949;52.590;7.330;2023-05-02T03:40:14;9.90;;;6.57;;
62997;SDS011;55949;52.590;7.330;2023-05-02T03:41:15;11.07;;;6.80;;
62997;SDS011;55949;52.590;7.330;2023-05-02T03:42:16;11.85;;;6.78;;
62997;SDS011;55949;52.590;7.330;2023-05-02T03:43:17;8.23;;;6.40;;
62997;SDS011;55949;52.590;7.330;2023-05-02T03:44:17;10.07;;;5.88;;
62997;SDS011;55949;52.590;7.330;2023-05-02T03:45:18;9.73;;;6.05;;
62997;SDS011;55949;52.590;7.330;2023-05-02T03:46:19;8.07;;;6.05;;
62997;SDS011;55949;52.590;7.330;2023-05-02T03:47:20;15.88;;;14.60;;
62997;SDS011;55949;52.590;7.330;2023-05-02T03:48:21;8.38;;;6.07;;
62997;SDS011;55949;52.590;7.330;2023-05-02T03:49:22;9.85;;;6.30;;
62997;SDS011;55949;52.590;7.330;2023-05-02T03:50:22;12.82;;;7.43;;
62997;SDS011;55949;52.590;7.330;2023-05-02T03:51:24;9.23;;;6.32;;
62997;SDS011;55949;52.590;7.330;2023-05-02T03:52:24;11.10;;;10.05;;
62997;SDS011;55949;52.590;7.330;2023-05-02T03:53:25;19.10;;;17.77;;
62997;SDS011;55949;52.590;7.330;2023-05-02T03:54:26;9.27;;;4.25;;
62997;SDS011;55949;52.590;7.330;2023-05-02T03:55:26;10.10;;;5.30;;
62997;SDS011;55949;52.590;7.330;2023-05-02T03:56:27;12.95;;;10.00;;
62997;SDS011;55949;52.590;7.330;2023-05-02T03:57:31;8.70;;;6.45;;
62997;SDS011;55949;52.590;7.330;2023-05-02T03:58:31;11.68;;;4.13;;
62997;SDS011;55949;52.590;7.330;2023-05-02T03:59:33;20.73;;;19.00;;
62997;SDS011;55949;52.590;7.330;2023-05-02T04:00:34;16.17;;;4.03;;
62997;SDS011;55949;52.590;7.330;2023-05-02T04:01:35;7.22;;;4.03;;
62997;SDS011;55949;52.590;7.330;2023-05-02T04:02:36;9.27;;;5.88;;
62997;SDS011;55949;52.590;7.330;2023-05-02T04:03:36;10.63;;;4.43;;
62997;SDS011;55949;52.590;7.330;2023-05-02T04:04:37;10.05;;;3.85;;
62997;SDS011;55949;52.590;7.330;2023-05-02T04:05:39;12.70;;;11.00;;
62997;SDS011;55949;52.590;7.330;2023-05-02T04:06:39;12.52;;;6.05;;
62997;SDS011;55949;52.590;7.330;2023-05-02T04:07:40;13.23;;;3.55;;
62997;SDS011;55949;52.590;7.330;2023-05-02T04:08:41;10.43;;;6.07;;
62997;SDS011;55949;52.590;7.330;2023-05-02T04:09:42;12.88;;;4.10;;
62997;SDS011;55949;52.590;7.330;2023-05-02T04:10:43;9.45;;;3.70;;
62997;SDS011;55949;52.590;7.330;2023-05-02T04:11:44;11.77;;;4.50;;
62997;SDS011;55949;52.590;7.330;2023-05-02T04:12:44;10.60;;;3.92;;
62997;SDS011;55949;52.590;7.330;2023-05-02T04:13:45;7.60;;;4.10;;
62997;SDS011;55949;52.590;7.330;2023-05-02T04:14:46;9.48;;;6.03;;
62997;SDS011;55949;52.590;7.330;2023-05-02T04:15:46;11.02;;;3.33;;
62997;SDS011;55949;52.590;7.330;2023-05-02T04:16:48;7.75;;;5.03;;
62997;SDS011;55949;52.590;7.330;2023-05-02T04:17:49;7.35;;;3.55;;
62997;SDS011;55949;52.590;7.330;2023-05-02T04:18:50;9.60;;;5.15;;
62997;SDS011;55949;52.590;7.330;2023-05-02T04:19:50;8.77;;;2.97;;
62997;SDS011;55949;52.590;7.330;2023-05-02T04:20:51;8.07;;;3.60;;
62997;SDS011;55949;52.590;7.330;2023-05-02T04:21:52;12.38;;;5.57;;
62997;SDS011;55949;52.590;7.330;2023-05-02T04:22:52;10.98;;;3.50;;
62997;SDS011;55949;52.590;7.330;2023-05-02T04:23:53;13.32;;;3.75;;
62997;SDS011;55949;52.590;7.330;2023-05-02T04:24:54;13.00;;;4.45;;
62997;SDS011;55949;52.590;7.330;2023-05-02T04:25:55;8.38;;;3.45;;
62997;SDS011;55949;52.590;7.330;2023-05-02T04:26:55;8.82;;;4.35;;
62997;SDS011;55949;52.590;7.330;2023-05-02T04:27:56;8.95;;;3.60;;
62997;SDS011;55949;52.590;7.330;2023-05-02T04:28:57;10.20;;;4.03;;
62997;SDS011;55949;52.590;7.330;2023-05-02T04:29:58;7.47;;;3.95;;
62997;SDS011;55949;52.590;7.330;2023-05-02T04:30:58;13.40;;;4.45;;
62997;SDS011;55949;52.590;7.330;2023-05-02T04:31:59;11.73;;;4.22;;
62997;SDS011;55949;52.590;7.330;2023-05-02T04:33:00;12.10;;;3.72;;
62997;SDS011;55949;52.590;7.330;2023-05-02T04:34:01;13.98;;;9.23;;
62997;SDS011;55949;52.590;7.330;2023-05-02T04:35:03;20.08;;;6.50;;
62997;SDS011;55949;52.590;7.330;2023-05-02T04:36:05;18.20;;;12.55;;
62997;SDS011;55949;52.590;7.330;2023-05-02T04:37:06;17.65;;;6.25;;
62997;SDS011;55949;52.590;7.330;2023-05-02T04:38:06;17.65;;;5.50;;
62997;SDS011;55949;52.590;7.330;2023-05-02T04:39:08;13.80;;;6.70;;
62997;SDS011;55949;52.590;7.330;2023-05-02T04:40:08;15.13;;;7.85;;
62997;SDS011;55949;52.590;7.330;2023-05-02T04:41:10;12.65;;;4.95;;
62997;SDS011;55949;52.590;7.330;2023-05-02T04:42:12;15.80;;;4.65;;
62997;SDS011;55949;52.590;7.330;2023-05-02T04:43:12;13.95;;;5.32;;
62997;SDS011;55949;52.590;7.330;2023-05-02T04:44:13;25.33;;;5.50;;
62997;SDS011;55949;52.590;7.330;2023-05-02T04:45:14;21.10;;;6.10;;
62997;SDS011;55949;52.590;7.330;2023-05-02T04:46:16;22.80;;;5.32;;
62997;SDS011;55949;52.590;7.330;2023-05-02T04:47:17;21.10;;;6.95;;
62997;SDS011;55949;52.590;7.330;2023-05-02T04:48:18;19.45;;;7.50;;
62997;SDS011;55949;52.590;7.330;2023-05-02T04:49:19;21.45;;;5.95;;
62997;SDS011;55949;52.590;7.330;2023-05-02T04:50:19;20.42;;;5.57;;
62997;SDS011;55949;52.590;7.330;2023-05-02T04:51:20;20.65;;;5.18;;
62997;SDS011;55949;52.590;7.330;2023-05-02T04:52:21;19.25;;;5.65;;
62997;SDS011;55949;52.590;7.330;2023-05-02T04:53:22;17.02;;;5.43;;
62997;SDS011;55949;52.590;7.330;2023-05-02T04:54:23;16.65;;;5.20;;
62997;SDS011;55949;52.590;7.330;2023-05-02T04:55:24;19.20;;;6.20;;
62997;SDS011;55949;52.590;7.330;2023-05-02T04:56:24;15.65;;;5.82;;
62997;SDS011;55949;52.590;7.330;2023-05-02T04:57:27;21.92;;;6.50;;
62997;SDS011;55949;52.590;7.330;2023-05-02T04:58:28;18.83;;;6.00;;
62997;SDS011;55949;52.590;7.330;2023-05-02T04:59:28;19.17;;;5.57;;
62997;SDS011;55949;52.590;7.330;2023-05-02T05:00:29;18.05;;;4.97;;
62997;SDS011;55949;52.590;7.330;2023-05-02T05:01:30;18.15;;;5.40;;
62997;SDS011;55949;52.590;7.330;2023-05-02T05:02:31;21.67;;;7.10;;
62997;SDS011;55949;52.590;7.330;2023-05-02T05:03:32;16.63;;;6.60;;
62997;SDS011;55949;52.590;7.330;2023-05-02T05:04:33;16.00;;;7.47;;
62997;SDS011;55949;52.590;7.330;2023-05-02T05:05:33;17.15;;;7.20;;
62997;SDS011;55949;52.590;7.330;2023-05-02T05:06:34;19.27;;;7.50;;
62997;SDS011;55949;52.590;7.330;2023-05-02T05:07:35;20.15;;;7.13;;
62997;SDS011;55949;52.590;7.330;2023-05-02T05:08:36;17.38;;;7.13;;
62997;SDS011;55949;52.590;7.330;2023-05-02T05:09:37;21.63;;;7.30;;
62997;SDS011;55949;52.590;7.330;2023-05-02T05:10:37;22.45;;;7.22;;
62997;SDS011;55949;52.590;7.330;2023-05-02T05:11:41;14.80;;;6.10;;
62997;SDS011;55949;52.590;7.330;2023-05-02T05:12:42;15.88;;;6.13;;
62997;SDS011;55949;52.590;7.330;2023-05-02T05:13:43;17.77;;;8.32;;
62997;SDS011;55949;52.590;7.330;2023-05-02T05:14:44;21.73;;;7.20;;
62997;SDS011;55949;52.590;7.330;2023-05-02T05:15:46;17.42;;;7.15;;
62997;SDS011;55949;52.590;7.330;2023-05-02T05:16:46;17.52;;;6.57;;
62997;SDS011;55949;52.590;7.330;2023-05-02T05:17:47;16.52;;;5.80;;
62997;SDS011;55949;52.590;7.330;2023-05-02T05:18:48;21.00;;;7.60;;
62997;SDS011;55949;52.590;7.330;2023-05-02T05:19:49;16.67;;;6.75;;
62997;SDS011;55949;52.590;7.330;2023-05-02T05:20:49;21.67;;;6.97;;
62997;SDS011;55949;52.590;7.330;2023-05-02T05:21:50;15.27;;;6.15;;
62997;SDS011;55949;52.590;7.330;2023-05-02T05:22:51;16.10;;;6.38;;
62997;SDS011;55949;52.590;7.330;2023-05-02T05:23:52;13.57;;;6.03;;
62997;SDS011;55949;52.590;7.330;2023-05-02T05:24:52;20.40;;;7.45;;
62997;SDS011;55949;52.590;7.330;2023-05-02T05:25:53;19.52;;;6.57;;
62997;SDS011;55949;52.590;7.330;2023-05-02T05:26:54;23.98;;;6.18;;
62997;SDS011;55949;52.590;7.330;2023-05-02T05:27:55;14.90;;;6.75;;
62997;SDS011;55949;52.590;7.330;2023-05-02T05:28:56;18.88;;;6.35;;
62997;SDS011;55949;52.590;7.330;2023-05-02T05:29:56;21.00;;;7.28;;
62997;SDS011;55949;52.590;7.330;2023-05-02T05:30:57;17.55;;;5.68;;
62997;SDS011;55949;52.590;7.330;2023-05-02T05:32:03;16.23;;;5.97;;
62997;SDS011;55949;52.590;7.330;2023-05-02T05:33:05;15.52;;;6.60;;
62997;SDS011;55949;52.590;7.330;2023-05-02T05:34:05;18.35;;;5.35;;
62997;SDS011;55949;52.590;7.330;2023-05-02T05:35:06;15.95;;;5.93;;
62997;SDS011;55949;52.590;7.330;2023-05-02T05:36:11;16.25;;;5.75;;
62997;SDS011;55949;52.590;7.330;2023-05-02T05:37:16;19.08;;;6.10;;
62997;SDS011;55949;52.590;7.330;2023-05-02T05:38:17;20.55;;;5.88;;
62997;SDS011;55949;52.590;7.330;2023-05-02T05:39:18;19.90;;;5.60;;
62997;SDS011;55949;52.590;7.330;2023-05-02T05:40:19;13.60;;;6.05;;
62997;SDS011;55949;52.590;7.330;2023-05-02T05:41:21;11.75;;;6.03;;
62997;SDS011;55949;52.590;7.330;2023-05-02T05:42:22;14.32;;;5.20;;
62997;SDS011;55949;52.590;7.330;2023-05-02T05:43:23;17.60;;;5.82;;
62997;SDS011;55949;52.590;7.330;2023-05-02T05:44:25;18.20;;;6.38;;
62997;SDS011;55949;52.590;7.330;2023-05-02T05:45:25;15.90;;;5.72;;
62997;SDS011;55949;52.590;7.330;2023-05-02T05:46:26;15.82;;;6.05;;
62997;SDS011;55949;52.590;7.330;2023-05-02T05:47:27;11.80;;;4.95;;
62997;SDS011;55949;52.590;7.330;2023-05-02T05:48:28;12.43;;;5.55;;
62997;SDS011;55949;52.590;7.330;2023-05-02T05:49:28;13.50;;;5.07;;
62997;SDS011;55949;52.590;7.330;2023-05-02T05:50:29;19.10;;;5.43;;
62997;SDS011;55949;52.590;7.330;2023-05-02T05:51:30;13.45;;;3.03;;
62997;SDS011;55949;52.590;7.330;2023-05-02T05:52:31;15.05;;;5.32;;
62997;SDS011;55949;52.590;7.330;2023-05-02T05:53:32;13.68;;;5.90;;
62997;SDS011;55949;52.590;7.330;2023-05-02T05:54:33;14.88;;;4.82;;
62997;SDS011;55949;52.590;7.330;2023-05-02T05:55:34;16.17;;;5.05;;
62997;SDS011;55949;52.590;7.330;2023-05-02T05:56:35;15.88;;;5.75;;
62997;SDS011;55949;52.590;7.330;2023-05-02T05:57:36;17.15;;;4.90;;
62997;SDS011;55949;52.590;7.330;2023-05-02T05:58:37;7.93;;;4.63;;
62997;SDS011;55949;52.590;7.330;2023-05-02T05:59:38;16.25;;;5.30;;
62997;SDS011;55949;52.590;7.330;2023-05-02T06:00:39;11.40;;;5.00;;
62997;SDS011;55949;52.590;7.330;2023-05-02T06:01:41;13.07;;;4.03;;
62997;SDS011;55949;52.590;7.330;2023-05-02T06:02:42;17.08;;;5.25;;
62997;SDS011;55949;52.590;7.330;2023-05-02T06:03:42;14.13;;;4.40;;
62997;SDS011;55949;52.590;7.330;2023-05-02T06:04:43;14.57;;;3.97;;
62997;SDS011;55949;52.590;7.330;2023-05-02T06:05:45;15.20;;;4.05;;
62997;SDS011;55949;52.590;7.330;2023-05-02T06:06:46;12.35;;;4.32;;
62997;SDS011;55949;52.590;7.330;2023-05-02T06:07:46;13.10;;;4.38;;
62997;SDS011;55949;52.590;7.330;2023-05-02T06:08:47;14.38;;;3.95;;
62997;SDS011;55949;52.590;7.330;2023-05-02T06:09:48;11.35;;;3.60;;
62997;SDS011;55949;52.590;7.330;2023-05-02T06:10:51;12.82;;;3.92;;
62997;SDS011;55949;52.590;7.330;2023-05-02T06:11:52;10.68;;;2.30;;
62997;SDS011;55949;52.590;7.330;2023-05-02T06:12:53;9.70;;;4.40;;
62997;SDS011;55949;52.590;7.330;2023-05-02T06:13:54;13.02;;;5.00;;
62997;SDS011;55949;52.590;7.330;2023-05-02T06:14:55;11.77;;;4.15;;
62997;SDS011;55949;52.590;7.330;2023-05-02T06:15:59;9.63;;;5.38;;
62997;SDS011;55949;52.590;7.330;2023-05-02T06:17:00;14.10;;;5.22;;
62997;SDS011;55949;52.590;7.330;2023-05-02T06:18:01;5.45;;;3.78;;
62997;SDS011;55949;52.590;7.330;2023-05-02T06:19:02;11.02;;;4.45;;
62997;SDS011;55949;52.590;7.330;2023-05-02T06:20:03;9.00;;;3.38;;
62997;SDS011;55949;52.590;7.330;2023-05-02T06:21:04;11.48;;;2.88;;
62997;SDS011;55949;52.590;7.330;2023-05-02T06:22:05;12.10;;;4.10;;
62997;SDS011;55949;52.590;7.330;2023-05-02T06:23:06;9.05;;;4.80;;
62997;SDS011;55949;52.590;7.330;2023-05-02T06:24:07;15.75;;;3.75;;
62997;SDS011;55949;52.590;7.330;2023-05-02T06:25:07;8.45;;;4.57;;
62997;SDS011;55949;52.590;7.330;2023-05-02T06:26:08;8.15;;;4.30;;
62997;SDS011;55949;52.590;7.330;2023-05-02T06:27:09;9.05;;;3.05;;
62997;SDS011;55949;52.590;7.330;2023-05-02T06:28:10;17.15;;;3.45;;
62997;SDS011;55949;52.590;7.330;2023-05-02T06:29:11;6.13;;;3.08;;
62997;SDS011;55949;52.590;7.330;2023-05-02T06:30:12;12.63;;;3.95;;